createdAt,value
2023-03-12T00:01:48.065Z,6.30
2023-03-12T00:04:18.960Z,6.68
2023-03-12T00:06:50.038Z,6.40
2023-03-12T00:09:20.996Z,6.22
2023-03-12T00:11:54.343Z,7.05
2023-03-12T00:14:25.063Z,9.45
2023-03-12T00:16:58.834Z,6.65
2023-03-12T00:19:29.616Z,5.07
2023-03-12T00:22:00.571Z,4.32
2023-03-12T00:24:31.242Z,6.45
2023-03-12T00:27:04.580Z,7.95
2023-03-12T00:29:35.337Z,7.00
2023-03-12T00:32:06.143Z,5.45
2023-03-12T00:34:36.879Z,6.18
2023-03-12T00:37:08.058Z,11.20
2023-03-12T00:39:39.092Z,7.68
2023-03-12T00:42:12.516Z,7.68
2023-03-12T00:44:44.243Z,7.45
2023-03-12T00:47:15.761Z,6.00
2023-03-12T00:49:46.502Z,4.28
2023-03-12T00:52:17.952Z,5.70
2023-03-12T00:54:48.667Z,6.25
2023-03-12T00:57:22.159Z,6.18
2023-03-12T00:59:52.898Z,4.57
2023-03-12T01:02:24.035Z,6.57
2023-03-12T01:04:54.862Z,5.97
2023-03-12T01:07:28.698Z,5.60
2023-03-12T01:09:59.557Z,5.57
2023-03-12T01:12:33.008Z,6.78
2023-03-12T01:15:04.215Z,4.25
2023-03-12T01:17:35.003Z,4.72
2023-03-12T01:20:06.627Z,5.22
2023-03-12T01:22:37.807Z,4.50
2023-03-12T01:25:09.547Z,3.53
2023-03-12T01:27:42.952Z,4.47
2023-03-12T01:30:15.184Z,5.75
2023-03-12T01:32:46.300Z,5.65
2023-03-12T01:35:17.184Z,4.85
2023-03-12T01:37:47.978Z,5.35
2023-03-12T01:40:19.780Z,4.53
2023-03-12T01:42:59.925Z,9.40
2023-03-12T01:46:00.844Z,3.22
2023-03-12T01:48:36.188Z,2.88
2023-03-12T01:51:08.734Z,3.90
2023-03-12T01:53:40.750Z,4.60
2023-03-12T01:56:12.587Z,3.85
2023-03-12T01:58:50.690Z,6.72
2023-03-12T02:01:23.315Z,5.05
2023-03-12T02:03:56.304Z,5.38
2023-03-12T02:06:33.320Z,4.07
2023-03-12T02:09:05.826Z,4.10
2023-03-12T02:11:36.782Z,5.00
2023-03-12T02:14:10.234Z,5.28
2023-03-12T02:16:41.216Z,3.28
2023-03-12T02:19:22.252Z,3.53
2023-03-12T02:21:53.477Z,8.32
2023-03-12T02:24:31.062Z,3.42
2023-03-12T02:27:05.295Z,3.95
2023-03-12T02:29:38.612Z,4.03
2023-03-12T02:32:12.630Z,5.63
2023-03-12T02:34:43.729Z,5.32
2023-03-12T02:37:14.516Z,3.97
2023-03-12T02:39:47.064Z,6.00
2023-03-12T02:42:20.629Z,6.28
2023-03-12T02:44:51.450Z,3.50
2023-03-12T02:48:30.334Z,5.30
2023-03-12T02:52:27.077Z,4.05
2023-03-12T02:54:58.974Z,3.77
2023-03-12T02:57:32.378Z,5.28
2023-03-12T03:00:04.530Z,4.07
2023-03-12T03:02:35.528Z,3.53
2023-03-12T03:05:06.407Z,5.22
2023-03-12T03:07:38.398Z,2.60
2023-03-12T03:10:15.563Z,6.10
2023-03-12T03:12:49.055Z,3.63
2023-03-12T03:15:20.341Z,3.05
2023-03-12T03:17:55.284Z,5.57
2023-03-12T03:20:26.859Z,6.38
2023-03-12T03:22:57.826Z,3.60
2023-03-12T03:25:28.967Z,5.20
2023-03-12T03:28:02.347Z,3.13
2023-03-12T03:30:33.276Z,4.50
2023-03-12T03:33:04.611Z,2.30
2023-03-12T03:35:37.062Z,4.70
2023-03-12T03:38:07.813Z,3.70
2023-03-12T03:40:38.577Z,3.40
2023-03-12T03:43:12.910Z,2.77
2023-03-12T03:45:44.826Z,7.55
2023-03-12T03:48:16.038Z,6.97
2023-03-12T03:50:46.921Z,5.70
2023-03-12T03:53:19.399Z,11.05
2023-03-12T03:55:50.868Z,2.28
2023-03-12T03:58:26.269Z,3.93
2023-03-12T04:00:57.374Z,4.68
2023-03-12T04:03:33.401Z,2.60
2023-03-12T04:06:06.385Z,2.20
2023-03-12T04:08:39.609Z,4.60
2023-03-12T04:11:11.497Z,3.80
2023-03-12T04:13:45.568Z,2.57
2023-03-12T04:16:22.473Z,3.17
2023-03-12T04:18:56.824Z,5.70
2023-03-12T04:21:27.629Z,2.60
2023-03-12T04:24:00.554Z,5.53
2023-03-12T04:26:31.303Z,2.72
2023-03-12T04:29:08.077Z,4.43
2023-03-12T04:31:38.904Z,3.70
2023-03-12T04:34:12.539Z,4.27
2023-03-12T04:36:45.197Z,5.97
2023-03-12T04:39:16.266Z,4.00
2023-03-12T04:41:47.124Z,2.55
2023-03-12T04:44:20.397Z,5.33
2023-03-12T04:46:51.261Z,4.43
2023-03-12T04:49:22.369Z,2.28
2023-03-12T04:51:53.092Z,3.10
2023-03-12T04:54:24.001Z,4.18
2023-03-12T04:56:54.884Z,3.58
2023-03-12T04:59:28.356Z,4.78
2023-03-12T05:02:00.509Z,3.95
2023-03-12T05:04:33.564Z,4.03
2023-03-12T05:07:04.884Z,5.30
2023-03-12T05:09:35.613Z,3.83
2023-03-12T05:12:07.085Z,10.20
2023-03-12T05:14:45.767Z,4.47
2023-03-12T05:17:16.924Z,2.37
2023-03-12T05:19:48.835Z,4.73
2023-03-12T05:22:20.280Z,2.43
2023-03-12T05:24:51.051Z,4.20
2023-03-12T05:27:22.159Z,7.00
2023-03-12T05:29:55.634Z,1.90
2023-03-12T05:32:26.503Z,4.57
2023-03-12T05:34:57.207Z,2.30
2023-03-12T05:37:28.284Z,5.03
2023-03-12T05:40:01.177Z,4.00
2023-03-12T05:42:32.060Z,6.73
2023-03-12T05:45:05.886Z,2.23
2023-03-12T05:47:37.794Z,6.53
2023-03-12T05:50:10.801Z,3.27
2023-03-12T05:52:41.866Z,4.93
2023-03-12T05:55:13.099Z,3.05
2023-03-12T05:58:42.198Z,3.13
2023-03-12T06:01:43.484Z,6.68
2023-03-12T06:04:14.562Z,3.83
2023-03-12T06:06:45.652Z,3.70
2023-03-12T06:09:16.701Z,4.23
2023-03-12T06:11:47.618Z,4.00
2023-03-12T06:14:18.308Z,2.80
2023-03-12T06:16:51.831Z,3.40
2023-03-12T06:19:22.637Z,2.43
2023-03-12T06:21:53.355Z,3.13
2023-03-12T06:24:24.083Z,5.37
2023-03-12T06:26:54.842Z,7.47
2023-03-12T06:29:25.565Z,4.00
2023-03-12T06:32:00.272Z,4.03
2023-03-12T06:34:31.014Z,4.60
2023-03-12T06:37:02.241Z,5.93
2023-03-12T06:39:32.997Z,5.17
2023-03-12T06:42:03.797Z,2.60
2023-03-12T06:44:35.133Z,5.60
2023-03-12T06:47:08.861Z,5.80
2023-03-12T06:49:39.821Z,4.13
2023-03-12T06:52:10.639Z,4.20
2023-03-12T06:54:41.336Z,5.40
2023-03-12T06:57:12.221Z,8.57
2023-03-12T06:59:42.959Z,4.53
2023-03-12T07:02:16.386Z,5.70
2023-03-12T07:04:47.202Z,5.53
2023-03-12T07:07:18.295Z,7.90
2023-03-12T07:09:49.039Z,3.63
2023-03-12T07:12:19.748Z,5.23
2023-03-12T07:14:50.416Z,5.60
2023-03-12T07:17:27.575Z,4.40
2023-03-12T07:19:58.328Z,5.13
2023-03-12T07:22:29.020Z,4.00
2023-03-12T07:25:00.057Z,5.10
2023-03-12T07:27:30.926Z,4.60
2023-03-12T07:30:01.692Z,4.53
2023-03-12T07:32:36.788Z,4.50
2023-03-12T07:35:08.345Z,7.87
2023-03-12T07:37:40.272Z,3.57
2023-03-12T07:40:12.696Z,7.40
2023-03-12T07:42:45.523Z,5.00
2023-03-12T07:45:16.518Z,4.37
2023-03-12T07:47:50.263Z,6.67
2023-03-12T07:50:22.114Z,7.93
2023-03-12T07:52:53.214Z,4.87
2023-03-12T07:55:24.259Z,3.60
2023-03-12T07:57:59.413Z,5.70
2023-03-12T08:00:32.679Z,3.87
2023-03-12T08:03:09.394Z,6.80
2023-03-12T08:05:40.286Z,6.63
2023-03-12T08:08:11.522Z,4.90
2023-03-12T08:10:42.312Z,5.50
2023-03-12T08:13:15.870Z,5.50
2023-03-12T08:15:46.942Z,6.33
2023-03-12T08:18:20.365Z,4.80
2023-03-12T08:20:56.288Z,5.23
2023-03-12T08:23:30.017Z,7.40
2023-03-12T08:26:06.920Z,5.43
2023-03-12T08:28:43.770Z,5.17
2023-03-12T08:31:17.714Z,7.60
2023-03-12T08:33:53.987Z,5.90
2023-03-12T08:36:25.335Z,4.37
2023-03-12T08:38:56.186Z,4.80
2023-03-12T08:41:26.920Z,6.20
2023-03-12T08:43:57.929Z,5.10
2023-03-12T08:46:29.594Z,4.93
2023-03-12T08:49:03.043Z,7.70
2023-03-12T08:51:33.790Z,4.40
2023-03-12T08:54:05.642Z,5.83
2023-03-12T08:56:37.165Z,7.73
2023-03-12T08:59:08.191Z,6.03
2023-03-12T09:01:44.044Z,6.57
2023-03-12T09:04:17.914Z,10.30
2023-03-12T09:06:58.927Z,4.73
2023-03-12T09:09:29.739Z,4.93
2023-03-12T09:12:00.726Z,4.97
2023-03-12T09:15:01.995Z,6.77
2023-03-12T09:17:22.388Z,5.13
2023-03-12T09:19:55.665Z,3.90
2023-03-12T09:22:26.718Z,7.70
2023-03-12T09:24:58.508Z,6.93
2023-03-12T09:27:32.204Z,4.73
2023-03-12T09:30:03.012Z,4.13
2023-03-12T09:32:37.159Z,4.20
2023-03-12T09:35:11.286Z,4.00
2023-03-12T09:37:51.691Z,3.80
2023-03-12T09:40:26.475Z,4.13
2023-03-12T09:43:02.157Z,6.10
2023-03-12T09:45:39.063Z,4.93
2023-03-12T09:48:19.793Z,4.80
2023-03-12T09:51:00.726Z,4.20
2023-03-12T09:53:41.209Z,4.50
2023-03-12T09:56:17.461Z,4.10
2023-03-12T09:58:54.772Z,3.23
2023-03-12T10:01:37.824Z,3.60
2023-03-12T10:04:25.855Z,3.53
2023-03-12T10:07:05.483Z,3.57
2023-03-12T10:10:05.622Z,3.07
2023-03-12T10:12:47.677Z,4.27
2023-03-12T10:15:31.003Z,5.10
2023-03-12T10:18:15.729Z,5.03
2023-03-12T10:21:15.027Z,6.87
2023-03-12T10:24:03.135Z,4.30
2023-03-12T10:27:55.326Z,5.07
2023-03-12T10:30:02.646Z,4.70
2023-03-12T10:32:41.917Z,6.57
2023-03-12T10:35:21.555Z,4.17
2023-03-12T10:37:58.821Z,3.70
2023-03-12T10:40:38.971Z,3.57
2023-03-12T10:43:12.550Z,3.27
2023-03-12T10:45:53.001Z,4.43
2023-03-12T10:48:25.859Z,4.50
2023-03-12T10:51:10.469Z,3.60
2023-03-12T10:53:44.694Z,2.70
2023-03-12T10:56:21.975Z,4.83
2023-03-12T10:58:54.843Z,3.43
2023-03-12T11:01:31.950Z,3.40
2023-03-12T11:04:17.633Z,6.67
2023-03-12T11:07:10.058Z,3.93
2023-03-12T11:09:41.152Z,4.43
2023-03-12T11:12:31.662Z,2.53
2023-03-12T11:15:02.392Z,7.27
2023-03-12T11:17:33.420Z,2.83
2023-03-12T11:20:27.489Z,2.40
2023-03-12T11:22:59.181Z,2.80
2023-03-12T11:25:31.836Z,2.67
2023-03-12T11:28:07.704Z,2.50
2023-03-12T11:30:43.082Z,3.87
2023-03-12T11:33:14.968Z,2.53
2023-03-12T11:35:55.701Z,4.10
2023-03-12T11:38:36.364Z,3.30
2023-03-12T11:41:23.845Z,5.30
2023-03-12T11:44:12.854Z,3.63
2023-03-12T11:46:53.910Z,3.60
2023-03-12T11:49:37.268Z,4.17
2023-03-12T11:52:16.885Z,4.47
2023-03-12T11:55:16.238Z,5.30
2023-03-12T11:58:14.982Z,6.07
2023-03-12T12:00:55.997Z,8.13
2023-03-12T12:03:59.666Z,10.10
2023-03-12T12:06:41.926Z,6.53
2023-03-12T12:09:23.236Z,6.23
2023-03-12T12:12:12.950Z,8.80
2023-03-12T12:14:56.760Z,7.23
2023-03-12T12:17:41.773Z,6.13
2023-03-12T12:20:26.034Z,6.17
2023-03-12T12:23:19.164Z,6.93
2023-03-12T12:26:11.658Z,5.77
2023-03-12T12:29:13.498Z,6.57
2023-03-12T12:31:50.764Z,7.00
2023-03-12T12:34:52.065Z,7.90
2023-03-12T12:37:34.974Z,7.23
2023-03-12T12:40:21.081Z,7.47
2023-03-12T12:43:00.098Z,9.00
2023-03-12T12:45:32.032Z,8.23
2023-03-12T12:48:09.189Z,9.50
2023-03-12T12:50:42.791Z,9.13
2023-03-12T12:53:23.053Z,9.50
2023-03-12T12:56:04.051Z,8.53
2023-03-12T12:59:05.303Z,8.97
2023-03-12T13:01:39.274Z,9.00
2023-03-12T13:04:15.577Z,10.00
2023-03-12T13:07:28.072Z,10.50
2023-03-12T13:10:09.417Z,11.83
2023-03-12T13:12:50.422Z,19.80
2023-03-12T13:15:40.200Z,17.20
2023-03-12T13:18:27.534Z,13.97
2023-03-12T13:21:16.923Z,14.10
2023-03-12T13:24:01.796Z,11.63
2023-03-12T13:26:50.147Z,9.33
2023-03-12T13:29:39.730Z,12.90
2023-03-12T13:32:33.276Z,12.20
2023-03-12T13:35:30.469Z,11.20
2023-03-12T13:38:07.734Z,13.30
2023-03-12T13:40:56.333Z,12.90
2023-03-12T13:43:52.986Z,11.57
2023-03-12T13:46:39.270Z,17.80
2023-03-12T13:49:21.472Z,20.27
2023-03-12T13:52:04.079Z,16.77
2023-03-12T13:54:41.659Z,15.60
2023-03-12T13:57:28.934Z,18.10
2023-03-12T14:00:00.817Z,16.90
2023-03-12T14:02:35.434Z,21.40
2023-03-12T14:05:09.527Z,18.73
2023-03-12T14:08:20.692Z,17.83
2023-03-12T14:11:05.604Z,25.20
2023-03-12T14:13:52.313Z,20.07
2023-03-12T14:16:29.134Z,23.07
2023-03-12T14:19:03.279Z,18.47
2023-03-12T14:21:41.323Z,20.27
2023-03-12T14:24:27.998Z,22.23
2023-03-12T14:27:03.983Z,23.13
2023-03-12T14:29:39.706Z,24.00
2023-03-12T14:32:18.943Z,19.20
2023-03-12T14:34:54.992Z,17.10
2023-03-12T14:37:31.292Z,20.17
2023-03-12T14:40:09.912Z,14.27
2023-03-12T14:42:40.590Z,20.40
2023-03-12T14:45:16.744Z,21.83
2023-03-12T14:47:51.887Z,14.83
2023-03-12T14:50:24.517Z,21.20
2023-03-12T14:52:55.767Z,19.60
2023-03-12T14:55:29.658Z,19.17
2023-03-12T14:58:07.791Z,18.70
2023-03-12T15:00:41.792Z,19.13
2023-03-12T15:03:17.801Z,20.43
2023-03-12T15:05:50.074Z,17.33
2023-03-12T15:08:23.666Z,16.17
2023-03-12T15:10:59.908Z,19.83
2023-03-12T15:13:30.945Z,19.57
2023-03-12T15:16:03.737Z,15.63
2023-03-12T15:18:35.931Z,18.07
2023-03-12T15:21:07.642Z,20.97
2023-03-12T15:23:40.769Z,19.20
2023-03-12T15:26:18.623Z,18.87
2023-03-12T15:28:58.771Z,17.67
2023-03-12T15:31:30.295Z,19.77
2023-03-12T15:34:06.215Z,24.30
2023-03-12T15:36:39.413Z,20.90
2023-03-12T15:39:26.566Z,16.60
2023-03-12T15:42:05.172Z,21.97
2023-03-12T15:44:47.581Z,17.40
2023-03-12T15:47:20.925Z,20.70
2023-03-12T15:49:54.582Z,19.47
2023-03-12T15:52:34.520Z,21.90
2023-03-12T15:55:09.879Z,20.43
2023-03-12T15:57:51.516Z,17.43
2023-03-12T16:00:26.552Z,22.07
2023-03-12T16:02:59.706Z,20.40
2023-03-12T16:05:34.177Z,18.93
2023-03-12T16:08:12.962Z,23.30
2023-03-12T16:10:43.998Z,15.20
2023-03-12T16:13:19.888Z,16.00
2023-03-12T16:15:50.933Z,21.40
2023-03-12T16:18:24.903Z,17.07
2023-03-12T16:20:59.270Z,17.33
2023-03-12T16:23:30.105Z,23.13
2023-03-12T16:26:01.654Z,20.70
2023-03-12T16:28:37.649Z,18.17
2023-03-12T16:31:14.121Z,20.37
2023-03-12T16:33:48.266Z,23.37
2023-03-12T16:36:20.540Z,17.80
2023-03-12T16:38:51.598Z,21.50
2023-03-12T16:41:22.993Z,15.50
2023-03-12T16:43:56.941Z,23.90
2023-03-12T16:46:33.992Z,17.70
2023-03-12T16:49:04.860Z,19.90
2023-03-12T16:51:35.629Z,17.03
2023-03-12T16:54:11.641Z,18.27
2023-03-12T16:56:47.921Z,23.83
2023-03-12T16:59:27.686Z,21.67
2023-03-12T17:02:02.050Z,19.27
2023-03-12T17:04:32.869Z,27.13
2023-03-12T17:07:03.617Z,18.20
2023-03-12T17:09:34.565Z,16.87
2023-03-12T17:12:05.545Z,18.17
2023-03-12T17:14:39.401Z,20.13
2023-03-12T17:17:11.204Z,13.03
2023-03-12T17:19:42.023Z,22.43
2023-03-12T17:22:12.926Z,21.07
2023-03-12T17:24:47.188Z,24.80
2023-03-12T17:27:17.913Z,22.67
2023-03-12T17:29:51.218Z,20.50
2023-03-12T17:32:22.100Z,21.50
2023-03-12T17:34:59.902Z,21.37
2023-03-12T17:37:33.191Z,18.20
2023-03-12T17:40:08.135Z,14.37
2023-03-12T17:42:38.940Z,22.10
2023-03-12T17:45:13.597Z,21.93
2023-03-12T17:47:44.364Z,22.90
2023-03-12T17:50:16.183Z,21.90
2023-03-12T17:52:47.028Z,13.47
2023-03-12T17:55:17.722Z,18.93
2023-03-12T17:57:48.447Z,20.23
2023-03-12T18:00:23.248Z,18.00
2023-03-12T18:02:55.980Z,20.57
2023-03-12T18:05:27.131Z,16.60
2023-03-12T18:07:57.831Z,18.53
2023-03-12T18:10:30.642Z,21.00
2023-03-12T18:13:01.432Z,16.57
2023-03-12T18:15:38.042Z,22.23
2023-03-12T18:18:08.879Z,21.50
2023-03-12T18:20:40.068Z,17.83
2023-03-12T18:23:10.799Z,14.80
2023-03-12T18:25:41.519Z,16.40
2023-03-12T18:28:14.617Z,14.57
2023-03-12T18:30:48.412Z,21.27
2023-03-12T18:33:19.741Z,22.43
2023-03-12T18:35:52.485Z,24.87
2023-03-12T18:38:24.760Z,18.27
2023-03-12T18:40:55.560Z,24.77
2023-03-12T18:43:26.870Z,17.37
2023-03-12T18:46:02.829Z,16.83
2023-03-12T18:48:33.703Z,17.87
2023-03-12T18:51:04.709Z,20.20
2023-03-12T18:53:35.823Z,17.20
2023-03-12T18:56:08.473Z,22.87
2023-03-12T18:58:39.211Z,20.97
2023-03-12T19:01:14.778Z,23.33
2023-03-12T19:03:45.716Z,20.73
2023-03-12T19:06:18.870Z,19.60
2023-03-12T19:08:49.776Z,22.03
2023-03-12T19:11:20.700Z,23.97
2023-03-12T19:13:53.186Z,18.37
2023-03-12T19:16:26.686Z,19.43
2023-03-12T19:18:57.414Z,18.77
2023-03-12T19:21:29.731Z,21.17
2023-03-12T19:24:00.749Z,21.80
2023-03-12T19:26:31.408Z,19.03
2023-03-12T19:29:02.118Z,17.33
2023-03-12T19:31:35.836Z,19.03
2023-03-12T19:34:06.563Z,16.63
2023-03-12T19:36:38.623Z,19.53
2023-03-12T19:39:20.434Z,18.17
2023-03-12T19:41:52.073Z,17.37
2023-03-12T19:44:22.835Z,25.20
2023-03-12T19:46:56.112Z,17.67
2023-03-12T19:49:27.063Z,18.07
2023-03-12T19:51:57.826Z,15.13
2023-03-12T19:54:28.700Z,19.53
2023-03-12T19:57:01.671Z,22.37
2023-03-12T19:59:32.665Z,22.10
2023-03-12T20:02:06.456Z,17.43
2023-03-12T20:04:37.384Z,17.80
2023-03-12T20:07:08.190Z,19.60
2023-03-12T20:09:41.144Z,23.00
2023-03-12T20:12:12.087Z,16.37
2023-03-12T20:14:43.115Z,23.33
2023-03-12T20:17:16.497Z,15.07
2023-03-12T20:19:47.419Z,26.40
2023-03-12T20:22:20.817Z,16.33
2023-03-12T20:24:51.662Z,20.83
2023-03-12T20:27:22.864Z,23.20
2023-03-12T20:29:53.680Z,31.33
2023-03-12T20:32:28.722Z,15.53
2023-03-12T20:34:59.574Z,20.50
2023-03-12T20:37:30.324Z,23.07
2023-03-12T20:40:01.124Z,19.80
2023-03-12T20:42:34.921Z,18.00
2023-03-12T20:45:08.824Z,20.73
2023-03-12T20:47:42.691Z,19.07
2023-03-12T20:50:14.191Z,17.53
2023-03-12T20:52:46.687Z,14.00
2023-03-12T20:55:17.658Z,16.43
2023-03-12T20:57:48.422Z,17.60
2023-03-12T21:00:21.517Z,19.00
2023-03-12T21:02:54.831Z,16.20
2023-03-12T21:05:25.992Z,22.87
2023-03-12T21:07:59.699Z,18.07
2023-03-12T21:10:31.694Z,13.43
2023-03-12T21:13:03.778Z,20.93
2023-03-12T21:15:34.487Z,13.03
2023-03-12T21:18:10.053Z,18.10
2023-03-12T21:20:43.814Z,23.70
2023-03-12T21:23:16.930Z,19.07
2023-03-12T21:25:47.667Z,12.10
2023-03-12T21:28:18.531Z,17.80
2023-03-12T21:30:49.283Z,17.30
2023-03-12T21:33:25.159Z,16.53
2023-03-12T21:35:56.160Z,17.87
2023-03-12T21:38:26.920Z,17.80
2023-03-12T21:40:59.294Z,14.33
2023-03-12T21:43:32.239Z,14.80
2023-03-12T21:46:06.593Z,16.73
2023-03-12T21:48:40.122Z,15.33
2023-03-12T21:51:13.188Z,16.00
2023-03-12T21:53:44.466Z,15.80
2023-03-12T21:56:17.413Z,13.50
2023-03-12T21:58:48.249Z,18.53
2023-03-12T22:01:23.655Z,16.97
2023-03-12T22:03:58.431Z,16.90
2023-03-12T22:06:29.399Z,18.90
2023-03-12T22:09:00.165Z,19.90
2023-03-12T22:11:31.072Z,15.37
2023-03-12T22:14:03.406Z,17.43
2023-03-12T22:16:34.289Z,15.23
2023-03-12T22:19:08.538Z,15.67
2023-03-12T22:21:39.325Z,19.70
2023-03-12T22:24:14.847Z,15.10
2023-03-12T22:26:45.648Z,18.50
2023-03-12T22:29:16.520Z,13.47
2023-03-12T22:31:47.393Z,17.60
2023-03-12T22:34:20.775Z,17.33
2023-03-12T22:36:51.921Z,11.50
2023-03-12T22:39:22.571Z,18.47
2023-03-12T22:41:56.195Z,23.43
2023-03-12T22:44:26.932Z,16.23
2023-03-12T22:46:59.636Z,12.40
2023-03-12T22:49:35.980Z,15.47
2023-03-12T22:52:10.012Z,10.87
2023-03-12T22:54:42.631Z,14.47
2023-03-12T22:57:14.173Z,15.40
2023-03-12T22:59:44.838Z,14.17
2023-03-12T23:02:15.550Z,15.97
2023-03-12T23:04:48.951Z,12.30
2023-03-12T23:07:20.146Z,9.53
2023-03-12T23:09:51.248Z,13.43
2023-03-12T23:12:22.008Z,20.90
2023-03-12T23:14:58.436Z,21.00
2023-03-12T23:17:31.380Z,12.97
2023-03-12T23:20:04.915Z,16.87
2023-03-12T23:22:36.734Z,10.70
2023-03-12T23:25:08.408Z,17.90
2023-03-12T23:27:39.144Z,10.87
2023-03-12T23:30:11.766Z,11.43
2023-03-12T23:32:42.516Z,16.57
2023-03-12T23:35:16.599Z,13.93
2023-03-12T23:37:47.634Z,10.93
2023-03-12T23:40:19.429Z,14.63
2023-03-12T23:42:50.131Z,15.50
2023-03-12T23:45:21.006Z,16.80
2023-03-12T23:47:51.861Z,10.60
2023-03-12T23:50:25.388Z,17.63
2023-03-12T23:52:57.254Z,11.60
2023-03-12T23:55:27.937Z,12.83
2023-03-12T23:57:58.622Z,14.63
